createdAt,value
2018-03-12T00:00:02.460Z,10.04
2018-03-12T00:00:06.584Z,10.04
2018-03-12T00:00:10.695Z,10.04
2018-03-12T00:00:14.808Z,10.07
2018-03-12T00:00:18.820Z,10.02
2018-03-12T00:00:22.716Z,9.96
2018-03-12T00:00:26.615Z,9.98
2018-03-12T00:00:30.616Z,10.07
2018-03-12T00:00:34.731Z,10.01
2018-03-12T00:00:39.070Z,9.98
2018-03-12T00:00:43.074Z,10.04
2018-03-12T00:00:47.189Z,10.07
2018-03-12T00:00:51.463Z,10.04
2018-03-12T00:00:55.366Z,9.95
2018-03-12T00:00:59.593Z,10.04
2018-03-12T00:01:03.606Z,10.01
2018-03-12T00:01:07.830Z,10.02
2018-03-12T00:01:12.062Z,10.02
2018-03-12T00:01:16.171Z,9.99
2018-03-12T00:01:20.387Z,9.93
2018-03-12T00:01:24.614Z,10.02
2018-03-12T00:01:28.722Z,10.02
2018-03-12T00:01:32.838Z,9.98
2018-03-12T00:01:36.963Z,10.02
2018-03-12T00:01:41.074Z,10.02
2018-03-12T00:01:45.409Z,9.99
2018-03-12T00:01:49.631Z,10.01
2018-03-12T00:01:53.536Z,9.99
2018-03-12T00:01:57.655Z,9.96
2018-03-12T00:02:01.664Z,10.01
2018-03-12T00:02:05.722Z,10.04
2018-03-12T00:02:09.629Z,9.99
2018-03-12T00:02:13.955Z,9.99
2018-03-12T00:02:18.183Z,9.98
2018-03-12T00:02:22.186Z,9.95
2018-03-12T00:02:26.202Z,9.95
2018-03-12T00:02:30.418Z,10.02
2018-03-12T00:02:34.429Z,10.01
2018-03-12T00:02:38.435Z,9.98
2018-03-12T00:02:42.654Z,9.96
2018-03-12T00:02:46.885Z,9.98
2018-03-12T00:02:50.999Z,9.96
2018-03-12T00:02:55.108Z,9.93
2018-03-12T00:02:59.123Z,9.96
2018-03-12T00:03:03.234Z,9.96
2018-03-12T00:03:07.346Z,9.95
2018-03-12T00:03:11.567Z,9.93
2018-03-12T00:03:15.690Z,9.96
2018-03-12T00:03:19.910Z,9.95
2018-03-12T00:03:24.130Z,9.95
2018-03-12T00:03:28.240Z,9.93
2018-03-12T00:03:32.348Z,9.95
2018-03-12T00:03:36.467Z,9.95
2018-03-12T00:03:40.578Z,9.96
2018-03-12T00:03:44.796Z,9.93
2018-03-12T00:03:48.806Z,9.93
2018-03-12T00:03:52.927Z,9.99
2018-03-12T00:03:57.043Z,9.96
2018-03-12T00:04:01.160Z,9.96
2018-03-12T00:04:05.476Z,9.93
2018-03-12T00:04:09.509Z,9.99
2018-03-12T00:04:13.408Z,9.96
2018-03-12T00:04:17.526Z,9.93
2018-03-12T00:04:21.645Z,9.96
2018-03-12T00:04:25.648Z,9.95
2018-03-12T00:04:29.542Z,9.96
2018-03-12T00:04:33.440Z,9.98
2018-03-12T00:04:37.445Z,9.96
2018-03-12T00:04:41.560Z,10.01
2018-03-12T00:04:45.576Z,9.96
2018-03-12T00:04:49.474Z,9.92
2018-03-12T00:04:53.588Z,9.96
2018-03-12T00:04:57.485Z,9.96
2018-03-12T00:05:01.605Z,9.96
2018-03-12T00:05:05.722Z,9.93
2018-03-12T00:05:10.056Z,9.93
2018-03-12T00:05:14.279Z,9.95
2018-03-12T00:05:18.393Z,9.96
2018-03-12T00:05:22.406Z,9.98
2018-03-12T00:05:26.423Z,9.93
2018-03-12T00:05:30.639Z,9.95
2018-03-12T00:05:34.970Z,9.96
2018-03-12T00:05:38.871Z,9.95
2018-03-12T00:05:43.200Z,9.93
2018-03-12T00:05:47.208Z,9.96
2018-03-12T00:05:51.324Z,9.95
2018-03-12T00:05:55.342Z,9.96
2018-03-12T00:05:59.458Z,10.02
2018-03-12T00:06:03.465Z,9.95
2018-03-12T00:06:07.363Z,9.99
2018-03-12T00:06:11.371Z,9.93
2018-03-12T00:06:15.707Z,9.95
2018-03-12T00:06:19.824Z,9.98
2018-03-12T00:06:23.936Z,9.99
2018-03-12T00:06:27.943Z,9.99
2018-03-12T00:06:32.167Z,9.92
2018-03-12T00:06:36.299Z,9.99
2018-03-12T00:06:40.408Z,9.93
2018-03-12T00:06:44.628Z,9.98
2018-03-12T00:06:48.430Z,9.96
2018-03-12T00:06:52.653Z,9.98
2018-03-12T00:06:56.550Z,9.95
2018-03-12T00:07:00.776Z,9.96
2018-03-12T00:07:04.674Z,9.95
2018-03-12T00:07:08.790Z,9.96
2018-03-12T00:07:12.961Z,10.02
2018-03-12T00:07:16.966Z,9.96
2018-03-12T00:07:21.186Z,9.99
2018-03-12T00:07:25.309Z,9.93
2018-03-12T00:07:29.313Z,9.96
2018-03-12T00:07:33.639Z,9.96
2018-03-12T00:07:37.647Z,9.95
2018-03-12T00:07:41.863Z,9.95
2018-03-12T00:07:46.085Z,9.95
2018-03-12T00:07:50.407Z,10.02
2018-03-12T00:07:54.414Z,9.96
2018-03-12T00:07:58.469Z,9.95
2018-03-12T00:08:02.477Z,9.91
2018-03-12T00:08:06.487Z,9.95
2018-03-12T00:08:10.706Z,9.99
2018-03-12T00:08:15.040Z,9.93
2018-03-12T00:08:19.376Z,9.93
2018-03-12T00:08:23.591Z,9.92
2018-03-12T00:08:27.702Z,9.95
2018-03-12T00:08:31.867Z,9.93
2018-03-12T00:08:36.090Z,9.96
2018-03-12T00:08:40.418Z,10.01
2018-03-12T00:08:44.640Z,9.91
2018-03-12T00:08:48.969Z,9.96
2018-03-12T00:08:52.978Z,9.93
2018-03-12T00:08:57.197Z,9.98
2018-03-12T00:09:01.319Z,9.96
2018-03-12T00:09:05.213Z,9.99
2018-03-12T00:09:09.461Z,10.01
2018-03-12T00:09:13.687Z,9.99
2018-03-12T00:09:18.012Z,10.01
2018-03-12T00:09:22.125Z,9.91
2018-03-12T00:09:26.391Z,9.95
2018-03-12T00:09:30.737Z,9.95
2018-03-12T00:09:34.965Z,9.93
2018-03-12T00:09:38.975Z,9.95
2018-03-12T00:09:43.204Z,9.93
2018-03-12T00:09:47.425Z,9.96
2018-03-12T00:09:51.542Z,9.93
2018-03-12T00:09:55.653Z,9.96
2018-03-12T00:09:59.879Z,9.99
2018-03-12T00:10:03.884Z,9.93
2018-03-12T00:10:08.009Z,9.91
2018-03-12T00:10:12.126Z,9.98
2018-03-12T00:10:16.139Z,9.95
2018-03-12T00:10:20.149Z,9.92
2018-03-12T00:10:24.368Z,9.91
2018-03-12T00:10:28.491Z,9.93
2018-03-12T00:10:32.610Z,9.89
2018-03-12T00:10:36.838Z,9.88
2018-03-12T00:10:41.059Z,9.91
2018-03-12T00:10:45.060Z,9.86
2018-03-12T00:10:49.071Z,9.91
2018-03-12T00:10:53.402Z,9.93
2018-03-12T00:10:57.567Z,9.96
2018-03-12T00:11:01.788Z,9.93
2018-03-12T00:11:05.799Z,9.91
2018-03-12T00:11:10.131Z,9.85
2018-03-12T00:11:14.361Z,9.89
2018-03-12T00:11:18.579Z,9.92
2018-03-12T00:11:22.804Z,9.92
2018-03-12T00:11:26.810Z,9.93
2018-03-12T00:11:30.711Z,9.88
2018-03-12T00:11:34.825Z,9.88
2018-03-12T00:11:38.724Z,9.91
2018-03-12T00:11:42.836Z,9.88
2018-03-12T00:11:47.161Z,9.88
2018-03-12T00:11:51.277Z,9.91
2018-03-12T00:11:55.183Z,9.86
2018-03-12T00:11:59.305Z,9.88
2018-03-12T00:12:03.315Z,9.8
2018-03-12T00:12:07.433Z,9.88
2018-03-12T00:12:11.554Z,9.85
2018-03-12T00:12:15.465Z,9.86
2018-03-12T00:12:19.472Z,9.86
2018-03-12T00:12:23.483Z,9.85
2018-03-12T00:12:27.492Z,9.85
2018-03-12T00:12:31.493Z,9.85
2018-03-12T00:12:35.717Z,9.86
2018-03-12T00:12:39.832Z,9.86
2018-03-12T00:12:43.943Z,9.85
2018-03-12T00:12:48.056Z,9.85
2018-03-12T00:12:52.168Z,9.83
2018-03-12T00:12:56.281Z,9.83
2018-03-12T00:13:00.505Z,9.78
2018-03-12T00:13:04.621Z,9.83
2018-03-12T00:13:08.747Z,9.86
2018-03-12T00:13:12.862Z,9.85
2018-03-12T00:13:16.864Z,9.85
2018-03-12T00:13:21.084Z,9.8
2018-03-12T00:13:25.307Z,9.83
2018-03-12T00:13:29.417Z,9.83
2018-03-12T00:13:33.427Z,9.81
2018-03-12T00:13:37.762Z,9.92
2018-03-12T00:13:41.875Z,9.85
2018-03-12T00:13:45.878Z,9.85
2018-03-12T00:13:49.778Z,9.83
2018-03-12T00:13:53.996Z,9.75
2018-03-12T00:13:58.217Z,9.86
2018-03-12T00:14:02.696Z,9.83
2018-03-12T00:14:06.924Z,9.81
2018-03-12T00:14:10.930Z,9.85
2018-03-12T00:14:14.821Z,9.89
2018-03-12T00:14:18.720Z,9.81
2018-03-12T00:14:22.830Z,9.85
2018-03-12T00:14:27.179Z,9.86
2018-03-12T00:14:31.304Z,9.81
2018-03-12T00:14:35.420Z,9.8
2018-03-12T00:14:39.426Z,9.8
2018-03-12T00:14:43.443Z,9.81
2018-03-12T00:14:47.778Z,9.8
2018-03-12T00:14:51.785Z,9.83
2018-03-12T00:14:55.910Z,9.8
2018-03-12T00:14:59.923Z,9.85
2018-03-12T00:15:03.829Z,9.83
2018-03-12T00:15:07.834Z,9.8
2018-03-12T00:15:11.960Z,9.86
2018-03-12T00:15:16.094Z,9.85
2018-03-12T00:15:20.097Z,9.83
2018-03-12T00:15:23.999Z,9.85
2018-03-12T00:15:28.220Z,9.8
2018-03-12T00:15:32.331Z,9.78
2018-03-12T00:15:36.558Z,9.85
2018-03-12T00:15:40.571Z,9.83
2018-03-12T00:15:44.789Z,9.81
2018-03-12T00:15:49.122Z,9.8
2018-03-12T00:15:53.234Z,9.85
2018-03-12T00:15:57.566Z,9.81
2018-03-12T00:16:02.088Z,9.86
2018-03-12T00:16:06.098Z,9.83
2018-03-12T00:16:10.103Z,9.83
2018-03-12T00:16:14.219Z,9.86
2018-03-12T00:16:18.446Z,9.83
2018-03-12T00:16:22.679Z,9.81
2018-03-12T00:16:26.901Z,9.83
2018-03-12T00:16:31.118Z,9.85
2018-03-12T00:16:35.232Z,9.85
2018-03-12T00:16:39.354Z,9.8
2018-03-12T00:16:43.680Z,9.8
2018-03-12T00:16:47.798Z,9.89
2018-03-12T00:16:52.140Z,9.8
2018-03-12T00:16:56.368Z,9.78
2018-03-12T00:17:00.488Z,9.86
2018-03-12T00:17:04.580Z,9.85
2018-03-12T00:17:08.710Z,9.85
2018-03-12T00:17:12.716Z,9.86
2018-03-12T00:17:16.723Z,9.83
2018-03-12T00:17:20.733Z,9.8
2018-03-12T00:17:24.969Z,9.85
2018-03-12T00:17:29.187Z,9.85
2018-03-12T00:17:33.522Z,9.88
2018-03-12T00:17:37.742Z,9.89
2018-03-12T00:17:41.965Z,9.8
2018-03-12T00:17:46.084Z,9.78
2018-03-12T00:17:50.195Z,9.8
2018-03-12T00:17:54.535Z,9.86
2018-03-12T00:17:58.645Z,9.88
2018-03-12T00:18:02.874Z,9.81
2018-03-12T00:18:06.880Z,9.85
2018-03-12T00:18:10.907Z,9.88
2018-03-12T00:18:15.232Z,9.88
2018-03-12T00:18:19.349Z,9.88
2018-03-12T00:18:23.779Z,9.81
2018-03-12T00:18:27.657Z,9.89
2018-03-12T00:18:31.670Z,9.78
2018-03-12T00:18:35.901Z,9.75
2018-03-12T00:18:39.794Z,9.85
2018-03-12T00:18:43.924Z,9.8
2018-03-12T00:18:48.036Z,9.86
2018-03-12T00:18:51.935Z,9.85
2018-03-12T00:18:55.936Z,9.89
2018-03-12T00:18:59.833Z,9.77
2018-03-12T00:19:04.301Z,9.77
2018-03-12T00:19:08.528Z,9.81
2018-03-12T00:19:12.650Z,9.88
2018-03-12T00:19:16.769Z,9.88
2018-03-12T00:19:20.989Z,9.86
2018-03-12T00:19:25.095Z,9.88
2018-03-12T00:19:28.775Z,9.78
2018-03-12T00:19:32.457Z,9.8
2018-03-12T00:19:36.570Z,9.78
2018-03-12T00:19:40.684Z,9.91
2018-03-12T00:19:44.584Z,9.86
2018-03-12T00:19:48.810Z,9.86
2018-03-12T00:19:53.028Z,9.83
2018-03-12T00:19:57.142Z,9.89
2018-03-12T00:20:01.148Z,9.88
2018-03-12T00:20:05.357Z,9.83
2018-03-12T00:20:09.584Z,9.8
2018-03-12T00:20:13.802Z,9.88
2018-03-12T00:20:17.703Z,9.81
2018-03-12T00:20:22.039Z,9.88
2018-03-12T00:20:26.274Z,9.77
2018-03-12T00:20:30.390Z,9.88
2018-03-12T00:20:34.607Z,9.88
2018-03-12T00:20:38.829Z,9.93
2018-03-12T00:20:42.941Z,9.8
2018-03-12T00:20:47.164Z,9.88
2018-03-12T00:20:51.278Z,9.88
2018-03-12T00:20:55.284Z,9.83
2018-03-12T00:20:59.613Z,9.88
2018-03-12T00:21:03.524Z,9.85
2018-03-12T00:21:07.634Z,9.86
2018-03-12T00:21:11.746Z,9.91
2018-03-12T00:21:16.081Z,9.88
2018-03-12T00:21:20.193Z,9.86
2018-03-12T00:21:24.307Z,9.85
2018-03-12T00:21:28.417Z,9.8
2018-03-12T00:21:32.789Z,9.88
2018-03-12T00:21:36.694Z,9.91
2018-03-12T00:21:40.805Z,9.91
2018-03-12T00:21:44.912Z,9.91
2018-03-12T00:21:48.918Z,9.93
2018-03-12T00:21:52.918Z,9.89
2018-03-12T00:21:56.601Z,9.93
2018-03-12T00:22:00.609Z,9.92
2018-03-12T00:22:04.729Z,9.86
2018-03-12T00:22:08.852Z,9.91
2018-03-12T00:22:13.081Z,9.81
2018-03-12T00:22:17.311Z,9.96
2018-03-12T00:22:21.207Z,9.93
2018-03-12T00:22:25.212Z,9.88
2018-03-12T00:22:29.430Z,9.93
2018-03-12T00:22:33.812Z,9.93
2018-03-12T00:22:37.924Z,9.93
2018-03-12T00:22:42.145Z,9.93
2018-03-12T00:22:46.256Z,9.86
2018-03-12T00:22:50.471Z,9.98
2018-03-12T00:22:54.478Z,9.96
2018-03-12T00:22:58.699Z,9.91
2018-03-12T00:23:03.031Z,9.86
2018-03-12T00:23:07.249Z,9.89
2018-03-12T00:23:11.250Z,9.92
2018-03-12T00:23:15.362Z,9.98
2018-03-12T00:23:19.488Z,9.96
2018-03-12T00:23:23.713Z,9.89
2018-03-12T00:23:27.723Z,9.98
2018-03-12T00:23:31.725Z,9.98
2018-03-12T00:23:36.097Z,9.92
2018-03-12T00:23:39.994Z,9.93
2018-03-12T00:23:43.994Z,9.92
2018-03-12T00:23:48.106Z,9.93
2018-03-12T00:23:52.324Z,9.93
2018-03-12T00:23:56.537Z,9.93
2018-03-12T00:24:00.757Z,9.96
2018-03-12T00:24:04.978Z,9.93
2018-03-12T00:24:09.208Z,9.95
2018-03-12T00:24:13.317Z,9.91
2018-03-12T00:24:17.333Z,9.89
2018-03-12T00:24:21.391Z,9.93
2018-03-12T00:24:25.509Z,9.92
2018-03-12T00:24:29.405Z,9.96
2018-03-12T00:24:33.509Z,9.92
2018-03-12T00:24:37.624Z,9.91
2018-03-12T00:24:41.739Z,9.95
2018-03-12T00:24:45.858Z,9.89
2018-03-12T00:24:49.760Z,9.93
2018-03-12T00:24:53.865Z,9.92
2018-03-12T00:24:58.102Z,9.95
2018-03-12T00:25:02.427Z,9.95
2018-03-12T00:25:06.756Z,9.92
2018-03-12T00:25:10.865Z,9.96
2018-03-12T00:25:15.091Z,9.93
2018-03-12T00:25:19.306Z,9.98
2018-03-12T00:25:23.422Z,10.01
2018-03-12T00:25:27.556Z,9.95
2018-03-12T00:25:31.560Z,9.95
2018-03-12T00:25:35.623Z,9.95
2018-03-12T00:25:39.959Z,9.95
2018-03-12T00:25:44.166Z,9.96
2018-03-12T00:25:48.285Z,9.96
2018-03-12T00:25:52.397Z,9.95
2018-03-12T00:25:56.728Z,9.96
2018-03-12T00:26:00.736Z,9.89
2018-03-12T00:26:04.849Z,9.96
2018-03-12T00:26:08.962Z,9.96
2018-03-12T00:26:13.080Z,9.95
2018-03-12T00:26:17.467Z,9.95
2018-03-12T00:26:21.581Z,9.93
2018-03-12T00:26:25.704Z,9.96
2018-03-12T00:26:30.034Z,9.89
2018-03-12T00:26:34.143Z,9.96
2018-03-12T00:26:38.366Z,9.93
2018-03-12T00:26:42.585Z,9.88
2018-03-12T00:26:46.817Z,9.92
2018-03-12T00:26:51.153Z,9.95
2018-03-12T00:26:55.378Z,9.96
2018-03-12T00:26:59.606Z,9.93
2018-03-12T00:27:04.027Z,9.93
2018-03-12T00:27:08.138Z,9.93
2018-03-12T00:27:12.256Z,10.02
2018-03-12T00:27:16.371Z,9.96
2018-03-12T00:27:20.496Z,9.98
2018-03-12T00:27:24.718Z,9.96
2018-03-12T00:27:29.057Z,9.95
2018-03-12T00:27:33.382Z,9.93
2018-03-12T00:27:37.720Z,9.92
2018-03-12T00:27:41.949Z,9.91
2018-03-12T00:27:46.283Z,9.99
2018-03-12T00:27:50.620Z,9.92
2018-03-12T00:27:54.850Z,9.93
2018-03-12T00:27:59.183Z,9.95
2018-03-12T00:28:03.305Z,9.95
2018-03-12T00:28:07.529Z,9.95
2018-03-12T00:28:11.528Z,9.98
2018-03-12T00:28:15.748Z,9.96
2018-03-12T00:28:20.021Z,9.95
2018-03-12T00:28:24.134Z,9.91
2018-03-12T00:28:28.244Z,9.93
2018-03-12T00:28:32.142Z,9.96
2018-03-12T00:28:36.261Z,9.96
2018-03-12T00:28:40.477Z,9.93
2018-03-12T00:28:44.475Z,9.96
2018-03-12T00:28:48.590Z,9.98
2018-03-12T00:28:52.920Z,9.93
2018-03-12T00:28:57.140Z,9.95
2018-03-12T00:29:01.150Z,9.93
2018-03-12T00:29:05.057Z,9.93
2018-03-12T00:29:09.395Z,9.91
2018-03-12T00:29:13.408Z,9.98
2018-03-12T00:29:17.312Z,9.93
2018-03-12T00:29:21.212Z,9.92
2018-03-12T00:29:25.369Z,9.93
2018-03-12T00:29:29.376Z,9.96
2018-03-12T00:29:33.381Z,9.93
2018-03-12T00:29:37.383Z,9.93
2018-03-12T00:29:41.612Z,9.89
2018-03-12T00:29:45.500Z,9.96
2018-03-12T00:29:49.615Z,9.96
2018-03-12T00:29:53.408Z,9.91
2018-03-12T00:29:57.541Z,9.92
2018-03-12T00:30:01.439Z,9.92
2018-03-12T00:30:05.456Z,9.95
2018-03-12T00:30:09.569Z,9.95
2018-03-12T00:30:13.681Z,9.92
2018-03-12T00:30:17.584Z,9.92
2018-03-12T00:30:21.584Z,9.95
2018-03-12T00:30:25.596Z,9.93
2018-03-12T00:30:29.706Z,9.96
2018-03-12T00:30:33.824Z,9.93
2018-03-12T00:30:37.934Z,9.91
2018-03-12T00:30:41.950Z,9.85
2018-03-12T00:30:45.956Z,9.92
2018-03-12T00:30:50.071Z,9.91
2018-03-12T00:30:53.969Z,9.89
2018-03-12T00:30:58.085Z,9.92
2018-03-12T00:31:02.607Z,9.98
2018-03-12T00:31:06.663Z,9.91
2018-03-12T00:31:10.677Z,9.92
2018-03-12T00:31:14.902Z,9.92
2018-03-12T00:31:19.226Z,9.89
2018-03-12T00:31:23.140Z,9.91
2018-03-12T00:31:27.359Z,9.93
2018-03-12T00:31:31.369Z,9.91
2018-03-12T00:31:35.482Z,9.91
2018-03-12T00:31:39.498Z,9.92
2018-03-12T00:31:43.614Z,9.93
2018-03-12T00:31:47.723Z,9.86
2018-03-12T00:31:51.833Z,9.88
2018-03-12T00:31:55.836Z,9.88
2018-03-12T00:32:00.156Z,9.92
2018-03-12T00:32:04.736Z,9.92
2018-03-12T00:32:08.959Z,9.85
2018-03-12T00:32:12.969Z,9.88
2018-03-12T00:32:17.187Z,9.91
2018-03-12T00:32:21.407Z,9.83
2018-03-12T00:32:25.733Z,9.83
2018-03-12T00:32:29.631Z,9.91
2018-03-12T00:32:33.957Z,9.86
2018-03-12T00:32:38.172Z,9.89
2018-03-12T00:32:42.289Z,9.92
2018-03-12T00:32:46.399Z,9.93
2018-03-12T00:32:50.524Z,9.92
2018-03-12T00:32:54.637Z,9.81
2018-03-12T00:32:58.544Z,9.86
2018-03-12T00:33:02.647Z,9.86
2018-03-12T00:33:06.545Z,9.86
2018-03-12T00:33:10.784Z,9.93
2018-03-12T00:33:15.008Z,9.93
2018-03-12T00:33:19.119Z,9.92
2018-03-12T00:33:23.233Z,9.8
2018-03-12T00:33:27.129Z,9.88
2018-03-12T00:33:31.250Z,9.93
2018-03-12T00:33:35.258Z,9.81
2018-03-12T00:33:39.483Z,9.85
2018-03-12T00:33:43.645Z,9.89
2018-03-12T00:33:47.763Z,9.8
2018-03-12T00:33:51.983Z,9.85
2018-03-12T00:33:56.321Z,9.86
2018-03-12T00:34:00.557Z,9.86
2018-03-12T00:34:04.671Z,9.86
2018-03-12T00:34:08.675Z,9.8
2018-03-12T00:34:12.574Z,9.86
2018-03-12T00:34:16.684Z,9.83
2018-03-12T00:34:21.013Z,9.83
2018-03-12T00:34:25.019Z,9.88
2018-03-12T00:34:28.920Z,9.8
2018-03-12T00:34:32.927Z,9.74
2018-03-12T00:34:37.167Z,9.8
2018-03-12T00:34:41.384Z,9.89
2018-03-12T00:34:45.605Z,9.86
2018-03-12T00:34:49.824Z,9.88
2018-03-12T00:34:54.044Z,9.77
2018-03-12T00:34:58.271Z,9.86
2018-03-12T00:35:02.483Z,9.86
2018-03-12T00:35:06.387Z,9.8
2018-03-12T00:35:10.614Z,9.81
2018-03-12T00:35:14.837Z,9.8
2018-03-12T00:35:18.951Z,9.8
2018-03-12T00:35:22.846Z,9.8
2018-03-12T00:35:26.852Z,9.83
2018-03-12T00:35:30.976Z,9.8
2018-03-12T00:35:35.108Z,9.85
2018-03-12T00:35:39.488Z,9.81
2018-03-12T00:35:44.223Z,9.81
2018-03-12T00:35:48.652Z,9.78
2018-03-12T00:35:53.100Z,9.85
2018-03-12T00:35:57.105Z,9.78
2018-03-12T00:36:01.012Z,9.78
2018-03-12T00:36:05.330Z,9.78
2018-03-12T00:36:09.342Z,9.78
2018-03-12T00:36:13.362Z,9.8
2018-03-12T00:36:17.371Z,9.83
2018-03-12T00:36:21.491Z,9.83
2018-03-12T00:36:25.715Z,9.83
2018-03-12T00:36:29.830Z,9.8
2018-03-12T00:36:33.727Z,9.77
2018-03-12T00:36:37.845Z,9.77
2018-03-12T00:36:42.086Z,9.81
2018-03-12T00:36:46.198Z,9.8
2018-03-12T00:36:50.199Z,9.83
2018-03-12T00:36:54.430Z,9.8
2018-03-12T00:36:58.442Z,9.88
2018-03-12T00:37:02.960Z,9.85
2018-03-12T00:37:07.075Z,9.78
2018-03-12T00:37:11.185Z,9.8
2018-03-12T00:37:15.299Z,9.81
2018-03-12T00:37:19.414Z,9.78
2018-03-12T00:37:23.310Z,9.78
2018-03-12T00:37:27.422Z,9.77
2018-03-12T00:37:31.212Z,9.77
2018-03-12T00:37:35.324Z,9.83
2018-03-12T00:37:39.336Z,9.75
2018-03-12T00:37:43.549Z,9.77
2018-03-12T00:37:47.780Z,9.8
2018-03-12T00:37:52.108Z,9.78
2018-03-12T00:37:56.231Z,9.83
2018-03-12T00:38:00.364Z,9.67
2018-03-12T00:38:04.525Z,9.8
2018-03-12T00:38:08.436Z,9.78
2018-03-12T00:38:12.550Z,9.77
2018-03-12T00:38:16.667Z,9.73
2018-03-12T00:38:20.806Z,9.78
2018-03-12T00:38:24.819Z,9.78
2018-03-12T00:38:28.842Z,9.78
2018-03-12T00:38:32.955Z,9.75
2018-03-12T00:38:37.284Z,9.78
2018-03-12T00:38:41.387Z,9.78
2018-03-12T00:38:45.498Z,9.78
2018-03-12T00:38:49.817Z,9.78
2018-03-12T00:38:53.824Z,9.75
2018-03-12T00:38:58.150Z,9.85
2018-03-12T00:39:02.381Z,9.75
2018-03-12T00:39:06.506Z,9.75
2018-03-12T00:39:10.623Z,9.78
2018-03-12T00:39:14.843Z,9.81
2018-03-12T00:39:19.072Z,9.8
2018-03-12T00:39:23.286Z,9.7
2018-03-12T00:39:27.294Z,9.75
2018-03-12T00:39:31.308Z,9.83
2018-03-12T00:39:35.419Z,9.75
2018-03-12T00:39:39.582Z,9.83
2018-03-12T00:39:43.806Z,9.81
2018-03-12T00:39:47.823Z,9.68
2018-03-12T00:39:51.943Z,9.68
2018-03-12T00:39:56.071Z,9.68
2018-03-12T00:40:00.089Z,9.74
2018-03-12T00:40:04.103Z,9.67
2018-03-12T00:40:08.141Z,9.78
2018-03-12T00:40:12.357Z,9.71
2018-03-12T00:40:16.578Z,9.63
2018-03-12T00:40:20.588Z,9.7
2018-03-12T00:40:24.812Z,9.75
2018-03-12T00:40:28.820Z,9.75
2018-03-12T00:40:32.834Z,9.7
2018-03-12T00:40:37.053Z,9.78
2018-03-12T00:40:41.172Z,9.81
2018-03-12T00:40:45.292Z,9.77
2018-03-12T00:40:49.513Z,9.78
2018-03-12T00:40:53.628Z,9.78
2018-03-12T00:40:57.849Z,9.7
2018-03-12T00:41:01.959Z,9.75
2018-03-12T00:41:06.013Z,9.78
2018-03-12T00:41:10.247Z,9.81
2018-03-12T00:41:14.364Z,9.77
2018-03-12T00:41:18.370Z,9.7
2018-03-12T00:41:22.702Z,9.8
2018-03-12T00:41:26.812Z,9.75
2018-03-12T00:41:30.929Z,9.83
2018-03-12T00:41:35.045Z,9.78
2018-03-12T00:41:39.060Z,9.67
2018-03-12T00:41:43.072Z,9.68
2018-03-12T00:41:47.290Z,9.75
2018-03-12T00:41:51.193Z,9.74
2018-03-12T00:41:55.195Z,9.73
2018-03-12T00:41:59.417Z,9.67
2018-03-12T00:42:03.781Z,9.67
2018-03-12T00:42:07.684Z,9.77
2018-03-12T00:42:12.020Z,9.78
2018-03-12T00:42:16.126Z,9.74
2018-03-12T00:42:20.236Z,9.73
2018-03-12T00:42:24.134Z,9.71
2018-03-12T00:42:28.139Z,9.68
2018-03-12T00:42:32.394Z,9.75
2018-03-12T00:42:36.392Z,9.8
2018-03-12T00:42:40.502Z,9.68
2018-03-12T00:42:44.720Z,9.71
2018-03-12T00:42:48.832Z,9.68
2018-03-12T00:42:52.942Z,9.74
2018-03-12T00:42:56.961Z,9.65
2018-03-12T00:43:01.085Z,9.68
2018-03-12T00:43:05.341Z,9.68
2018-03-12T00:43:09.458Z,9.71
2018-03-12T00:43:13.746Z,9.68
2018-03-12T00:43:17.972Z,9.73
2018-03-12T00:43:21.876Z,9.68
2018-03-12T00:43:26.005Z,9.68
2018-03-12T00:43:30.008Z,9.77
2018-03-12T00:43:34.235Z,9.68
2018-03-12T00:43:38.465Z,9.68
2018-03-12T00:43:42.683Z,9.68
2018-03-12T00:43:46.799Z,9.74
2018-03-12T00:43:51.023Z,9.68
2018-03-12T00:43:55.032Z,9.73
2018-03-12T00:43:59.035Z,9.65
2018-03-12T00:44:03.265Z,9.75
2018-03-12T00:44:07.068Z,9.73
2018-03-12T00:44:11.413Z,9.68
2018-03-12T00:44:15.417Z,9.65
2018-03-12T00:44:19.635Z,9.77
2018-03-12T00:44:23.856Z,9.75
2018-03-12T00:44:27.757Z,9.73
2018-03-12T00:44:31.658Z,9.7
2018-03-12T00:44:35.778Z,9.71
2018-03-12T00:44:39.892Z,9.77
2018-03-12T00:44:44.009Z,9.7
2018-03-12T00:44:48.014Z,9.74
2018-03-12T00:44:52.245Z,9.77
2018-03-12T00:44:56.469Z,9.67
2018-03-12T00:45:00.804Z,9.71
2018-03-12T00:45:05.101Z,9.65
2018-03-12T00:45:09.218Z,9.68
2018-03-12T00:45:13.229Z,9.68
2018-03-12T00:45:17.343Z,9.63
2018-03-12T00:45:21.357Z,9.74
2018-03-12T00:45:25.461Z,9.75
2018-03-12T00:45:29.476Z,9.74
2018-03-12T00:45:33.377Z,9.63
2018-03-12T00:45:37.607Z,9.68
2018-03-12T00:45:41.831Z,9.7
2018-03-12T00:45:45.943Z,9.68
2018-03-12T00:45:49.844Z,9.7
2018-03-12T00:45:54.060Z,9.65
2018-03-12T00:45:58.184Z,9.7
2018-03-12T00:46:02.488Z,9.68
2018-03-12T00:46:06.492Z,9.7
2018-03-12T00:46:10.611Z,9.68
2018-03-12T00:46:14.734Z,9.68
2018-03-12T00:46:19.075Z,9.68
2018-03-12T00:46:23.192Z,9.68
2018-03-12T00:46:27.197Z,9.73
2018-03-12T00:46:30.991Z,9.68
2018-03-12T00:46:35.105Z,9.68
2018-03-12T00:46:39.328Z,9.68
2018-03-12T00:46:43.121Z,9.71
2018-03-12T00:46:47.026Z,9.68
2018-03-12T00:46:51.034Z,9.68
2018-03-12T00:46:55.142Z,9.68
2018-03-12T00:46:59.037Z,9.73
2018-03-12T00:47:03.048Z,9.65
2018-03-12T00:47:06.960Z,9.65
2018-03-12T00:47:11.289Z,9.65
2018-03-12T00:47:15.086Z,9.7
2018-03-12T00:47:18.875Z,9.68
2018-03-12T00:47:23.098Z,9.73
2018-03-12T00:47:27.419Z,9.71
2018-03-12T00:47:31.210Z,9.68
2018-03-12T00:47:35.005Z,9.7
2018-03-12T00:47:39.013Z,9.68
2018-03-12T00:47:43.244Z,9.68
2018-03-12T00:47:47.464Z,9.7
2018-03-12T00:47:51.801Z,9.71
2018-03-12T00:47:55.805Z,9.77
2018-03-12T00:48:00.033Z,9.67
2018-03-12T00:48:03.992Z,9.7
2018-03-12T00:48:08.005Z,9.68
2018-03-12T00:48:12.133Z,9.74
2018-03-12T00:48:16.040Z,9.7
2018-03-12T00:48:20.266Z,9.71
2018-03-12T00:48:24.056Z,9.67
2018-03-12T00:48:28.281Z,9.7
2018-03-12T00:48:32.289Z,9.71
2018-03-12T00:48:36.509Z,9.68
2018-03-12T00:48:40.626Z,9.65
2018-03-12T00:48:44.842Z,9.73
2018-03-12T00:48:48.952Z,9.65
2018-03-12T00:48:52.857Z,9.68
2018-03-12T00:48:56.863Z,9.74
2018-03-12T00:49:01.086Z,9.7
2018-03-12T00:49:05.424Z,9.71
2018-03-12T00:49:09.536Z,9.74
2018-03-12T00:49:13.764Z,9.73
2018-03-12T00:49:18.086Z,9.7
2018-03-12T00:49:22.096Z,9.71
2018-03-12T00:49:26.216Z,9.77
2018-03-12T00:49:30.440Z,9.68
2018-03-12T00:49:34.553Z,9.71
2018-03-12T00:49:38.453Z,9.74
2018-03-12T00:49:42.568Z,9.68
2018-03-12T00:49:46.679Z,9.68
2018-03-12T00:49:50.574Z,9.71
2018-03-12T00:49:54.589Z,9.68
2018-03-12T00:49:58.701Z,9.7
2018-03-12T00:50:03.031Z,9.73
2018-03-12T00:50:07.041Z,9.7
2018-03-12T00:50:11.297Z,9.68
2018-03-12T00:50:15.412Z,9.71
2018-03-12T00:50:19.641Z,9.67
2018-03-12T00:50:23.857Z,9.62
2018-03-12T00:50:27.869Z,9.67
2018-03-12T00:50:31.987Z,9.71
2018-03-12T00:50:36.309Z,9.74
2018-03-12T00:50:40.316Z,9.65
2018-03-12T00:50:44.424Z,9.7
2018-03-12T00:50:48.439Z,9.68
2018-03-12T00:50:52.547Z,9.67
2018-03-12T00:50:56.766Z,9.73
2018-03-12T00:51:01.008Z,9.67
2018-03-12T00:51:05.323Z,9.71
2018-03-12T00:51:09.651Z,9.77
2018-03-12T00:51:13.552Z,9.68
2018-03-12T00:51:17.770Z,9.74
2018-03-12T00:51:21.670Z,9.68
2018-03-12T00:51:26.004Z,9.71
2018-03-12T00:51:30.226Z,9.63
2018-03-12T00:51:34.346Z,9.7
2018-03-12T00:51:38.359Z,9.74
2018-03-12T00:51:42.263Z,9.63
2018-03-12T00:51:46.164Z,9.65
2018-03-12T00:51:50.436Z,9.67
2018-03-12T00:51:54.561Z,9.67
2018-03-12T00:51:58.790Z,9.65
2018-03-12T00:52:03.152Z,9.68
2018-03-12T00:52:06.968Z,9.71
2018-03-12T00:52:11.413Z,9.73
2018-03-12T00:52:15.527Z,9.65
2018-03-12T00:52:19.529Z,9.65
2018-03-12T00:52:23.759Z,9.68
2018-03-12T00:52:28.017Z,9.67
2018-03-12T00:52:32.024Z,9.68
2018-03-12T00:52:36.246Z,9.68
2018-03-12T00:52:40.253Z,9.67
2018-03-12T00:52:44.422Z,9.68
2018-03-12T00:52:48.536Z,9.68
2018-03-12T00:52:52.540Z,9.74
2018-03-12T00:52:56.443Z,9.65
2018-03-12T00:53:00.660Z,9.67
2018-03-12T00:53:04.791Z,9.7
2018-03-12T00:53:08.801Z,9.68
2018-03-12T00:53:12.822Z,9.75
2018-03-12T00:53:16.933Z,9.68
2018-03-12T00:53:21.266Z,9.71
2018-03-12T00:53:25.157Z,9.67
2018-03-12T00:53:29.479Z,9.73
2018-03-12T00:53:33.597Z,9.71
2018-03-12T00:53:37.704Z,9.68
2018-03-12T00:53:41.819Z,9.68
2018-03-12T00:53:45.937Z,9.73
2018-03-12T00:53:50.157Z,9.73
2018-03-12T00:53:54.272Z,9.73
2018-03-12T00:53:58.495Z,9.65
2018-03-12T00:54:02.397Z,9.63
2018-03-12T00:54:06.623Z,9.78
2018-03-12T00:54:10.627Z,9.71
2018-03-12T00:54:14.951Z,9.65
2018-03-12T00:54:19.066Z,9.74
2018-03-12T00:54:23.186Z,9.73
2018-03-12T00:54:27.196Z,9.68
2018-03-12T00:54:31.311Z,9.68
2018-03-12T00:54:35.638Z,9.73
2018-03-12T00:54:39.653Z,9.67
2018-03-12T00:54:43.564Z,9.68
2018-03-12T00:54:47.575Z,9.65
2018-03-12T00:54:51.802Z,9.73
2018-03-12T00:54:55.708Z,9.71